createdAt,value
2018-03-07T00:00:16.480Z,3.50
2018-03-07T00:01:19.011Z,2.90
2018-03-07T00:02:21.552Z,2.87
2018-03-07T00:03:24.066Z,3.10
2018-03-07T00:04:26.612Z,2.57
2018-03-07T00:05:29.110Z,3.00
2018-03-07T00:06:31.648Z,2.80
2018-03-07T00:07:34.191Z,2.93
2018-03-07T00:08:36.706Z,3.47
2018-03-07T00:09:39.220Z,2.87
2018-03-07T00:10:41.743Z,2.97
2018-03-07T00:11:44.279Z,2.80
2018-03-07T00:12:46.812Z,3.10
2018-03-07T00:13:49.340Z,3.33
2018-03-07T00:14:51.872Z,2.57
2018-03-07T00:15:54.416Z,3.73
2018-03-07T00:16:56.935Z,3.00
2018-03-07T00:17:59.476Z,2.70
2018-03-07T00:19:02.008Z,2.53
2018-03-07T00:20:04.563Z,2.87
2018-03-07T00:21:07.070Z,2.60
2018-03-07T00:22:09.578Z,2.43
2018-03-07T00:23:12.109Z,2.73
2018-03-07T00:24:14.713Z,2.30
2018-03-07T00:25:17.227Z,2.70
2018-03-07T00:26:19.772Z,2.70
2018-03-07T00:27:22.278Z,3.10
2018-03-07T00:28:24.810Z,3.23
2018-03-07T00:29:27.327Z,2.50
2018-03-07T00:30:29.852Z,3.00
2018-03-07T00:31:32.362Z,2.47
2018-03-07T00:32:34.888Z,2.93
2018-03-07T00:33:37.432Z,2.90
2018-03-07T00:34:39.956Z,2.70
2018-03-07T00:35:42.480Z,2.60
2018-03-07T00:36:45.000Z,2.97
2018-03-07T00:37:47.506Z,3.00
2018-03-07T00:38:50.034Z,2.40
2018-03-07T00:39:52.568Z,2.63
2018-03-07T00:40:55.078Z,2.40
2018-03-07T00:41:57.600Z,2.83
2018-03-07T00:43:00.121Z,2.27
2018-03-07T00:44:02.650Z,2.60
2018-03-07T00:45:05.153Z,3.20
2018-03-07T00:46:07.658Z,2.77
2018-03-07T00:47:10.170Z,2.33
2018-03-07T00:48:12.678Z,2.63
2018-03-07T00:49:15.216Z,2.70
2018-03-07T00:50:17.743Z,2.50
2018-03-07T00:51:20.246Z,2.67
2018-03-07T00:52:22.789Z,2.43
2018-03-07T00:53:25.323Z,3.20
2018-03-07T00:54:27.867Z,2.50
2018-03-07T00:55:30.408Z,2.50
2018-03-07T00:56:32.913Z,2.70
2018-03-07T00:57:35.440Z,2.33
2018-03-07T00:58:38.299Z,2.00
2018-03-07T00:59:40.844Z,2.90
2018-03-07T01:00:43.368Z,2.67
2018-03-07T01:01:45.891Z,3.00
2018-03-07T01:02:48.430Z,2.67
2018-03-07T01:03:50.956Z,2.80
2018-03-07T01:04:53.513Z,3.03
2018-03-07T01:05:56.021Z,3.27
2018-03-07T01:06:58.567Z,2.70
2018-03-07T01:08:01.088Z,3.30
2018-03-07T01:09:03.612Z,2.27
2018-03-07T01:10:06.143Z,2.50
2018-03-07T01:11:08.668Z,2.60
2018-03-07T01:12:11.214Z,2.63
2018-03-07T01:13:13.720Z,3.10
2018-03-07T01:14:16.230Z,3.10
2018-03-07T01:15:18.772Z,2.80
2018-03-07T01:16:21.296Z,2.60
2018-03-07T01:17:23.816Z,3.50
2018-03-07T01:18:26.337Z,3.00
2018-03-07T01:19:28.860Z,2.70
2018-03-07T01:20:31.393Z,2.60
2018-03-07T01:21:33.916Z,2.33
2018-03-07T01:22:36.449Z,2.73
2018-03-07T01:23:38.972Z,2.30
2018-03-07T01:24:41.488Z,3.07
2018-03-07T01:25:44.018Z,3.33
2018-03-07T01:26:46.544Z,2.43
2018-03-07T01:27:49.062Z,2.90
2018-03-07T01:28:51.566Z,2.73
2018-03-07T01:29:54.070Z,2.50
2018-03-07T01:30:56.598Z,2.80
2018-03-07T01:31:59.131Z,2.90
2018-03-07T01:33:01.678Z,3.10
2018-03-07T01:34:04.199Z,2.80
2018-03-07T01:35:06.732Z,2.90
2018-03-07T01:36:09.357Z,2.80
2018-03-07T01:37:11.869Z,2.90
2018-03-07T01:38:14.386Z,2.57
2018-03-07T01:39:16.911Z,2.70
2018-03-07T01:40:19.449Z,3.70
2018-03-07T01:41:21.976Z,3.10
2018-03-07T01:42:24.502Z,2.73
2018-03-07T01:43:27.017Z,3.00
2018-03-07T01:44:29.562Z,3.40
2018-03-07T01:45:32.087Z,2.13
2018-03-07T01:46:34.606Z,2.90
2018-03-07T01:47:37.124Z,2.47
2018-03-07T01:48:39.664Z,2.63
2018-03-07T01:49:42.193Z,2.83
2018-03-07T01:50:44.705Z,2.40
2018-03-07T01:51:59.065Z,2.73
2018-03-07T01:53:01.579Z,2.30
2018-03-07T01:54:04.090Z,3.13
2018-03-07T01:55:06.620Z,2.40
2018-03-07T01:56:09.178Z,2.20
2018-03-07T01:57:11.691Z,2.50
2018-03-07T01:58:14.206Z,2.33
2018-03-07T01:59:16.727Z,2.63
2018-03-07T02:00:19.236Z,2.50
2018-03-07T02:01:21.780Z,2.67
2018-03-07T02:02:24.336Z,2.47
2018-03-07T02:03:26.838Z,2.90
2018-03-07T02:04:29.350Z,2.07
2018-03-07T02:05:31.862Z,2.30
2018-03-07T02:06:34.405Z,2.10
2018-03-07T02:07:36.913Z,2.47
2018-03-07T02:08:39.448Z,2.13
2018-03-07T02:09:41.984Z,2.93
2018-03-07T02:10:44.503Z,2.13
2018-03-07T02:11:47.038Z,2.27
2018-03-07T02:12:49.565Z,2.17
2018-03-07T02:13:52.084Z,2.20
2018-03-07T02:14:54.605Z,2.27
2018-03-07T02:15:57.132Z,2.93
2018-03-07T02:16:59.677Z,2.17
2018-03-07T02:18:02.214Z,2.17
2018-03-07T02:19:04.735Z,2.50
2018-03-07T02:20:07.242Z,2.10
2018-03-07T02:21:09.772Z,2.40
2018-03-07T02:22:12.302Z,2.50
2018-03-07T02:23:14.814Z,2.50
2018-03-07T02:24:17.325Z,2.37
2018-03-07T02:25:19.852Z,2.93
2018-03-07T02:26:22.372Z,2.57
2018-03-07T02:27:24.914Z,2.57
2018-03-07T02:28:27.447Z,2.30
2018-03-07T02:29:29.978Z,3.07
2018-03-07T02:30:32.513Z,2.40
2018-03-07T02:31:35.056Z,2.77
2018-03-07T02:32:37.583Z,2.40
2018-03-07T02:33:40.102Z,2.53
2018-03-07T02:34:42.628Z,2.43
2018-03-07T02:35:45.157Z,2.40
2018-03-07T02:36:47.684Z,2.33
2018-03-07T02:37:50.211Z,2.30
2018-03-07T02:38:52.717Z,2.30
2018-03-07T02:39:55.240Z,2.53
2018-03-07T02:40:57.760Z,2.00
2018-03-07T02:42:00.280Z,2.20
2018-03-07T02:43:02.810Z,2.30
2018-03-07T02:44:05.350Z,2.03
2018-03-07T02:45:07.859Z,1.97
2018-03-07T02:46:10.408Z,2.13
2018-03-07T02:47:12.944Z,2.07
2018-03-07T02:48:15.462Z,2.13
2018-03-07T02:49:17.989Z,2.13
2018-03-07T02:50:20.513Z,2.50
2018-03-07T02:51:23.045Z,2.30
2018-03-07T02:52:25.574Z,1.93
2018-03-07T02:53:28.094Z,2.43
2018-03-07T02:54:30.608Z,2.67
2018-03-07T02:55:33.119Z,2.33
2018-03-07T02:56:35.688Z,2.17
2018-03-07T02:57:38.218Z,2.37
2018-03-07T02:58:40.742Z,1.87
2018-03-07T02:59:43.254Z,2.67
2018-03-07T03:00:45.761Z,2.27
2018-03-07T03:01:48.267Z,2.53
2018-03-07T03:02:50.812Z,2.00
2018-03-07T03:03:53.341Z,2.67
2018-03-07T03:04:55.867Z,2.30
2018-03-07T03:05:58.388Z,2.20
2018-03-07T03:07:00.903Z,2.10
2018-03-07T03:08:03.439Z,2.07
2018-03-07T03:09:05.965Z,1.60
2018-03-07T03:10:08.470Z,1.97
2018-03-07T03:11:10.974Z,1.83
2018-03-07T03:12:13.509Z,2.60
2018-03-07T03:13:16.046Z,1.90
2018-03-07T03:14:18.559Z,2.00
2018-03-07T03:15:21.084Z,2.90
2018-03-07T03:16:23.589Z,2.27
2018-03-07T03:17:26.116Z,2.47
2018-03-07T03:18:28.662Z,1.90
2018-03-07T03:19:31.184Z,1.93
2018-03-07T03:20:33.708Z,2.00
2018-03-07T03:21:36.215Z,2.23
2018-03-07T03:22:38.721Z,1.80
2018-03-07T03:23:41.266Z,2.00
2018-03-07T03:24:43.779Z,2.67
2018-03-07T03:25:46.304Z,1.80
2018-03-07T03:26:48.851Z,2.60
2018-03-07T03:27:51.362Z,2.23
2018-03-07T03:28:53.894Z,1.70
2018-03-07T03:29:56.409Z,2.10
2018-03-07T03:30:58.920Z,2.13
2018-03-07T03:32:01.484Z,2.23
2018-03-07T03:33:04.001Z,1.80
2018-03-07T03:34:06.547Z,1.90
2018-03-07T03:35:09.054Z,2.03
2018-03-07T03:36:11.579Z,2.30
2018-03-07T03:37:14.082Z,2.30
2018-03-07T03:38:16.612Z,2.57
2018-03-07T03:39:19.156Z,2.20
2018-03-07T03:40:21.681Z,2.30
2018-03-07T03:41:24.198Z,2.30
2018-03-07T03:42:26.701Z,1.90
2018-03-07T03:43:29.223Z,2.20
2018-03-07T03:44:31.763Z,2.10
2018-03-07T03:45:34.266Z,2.50
2018-03-07T03:46:36.773Z,2.10
2018-03-07T03:47:39.300Z,1.70
2018-03-07T03:48:41.823Z,1.83
2018-03-07T03:49:44.364Z,1.93
2018-03-07T03:50:46.874Z,1.73
2018-03-07T03:51:49.382Z,1.97
2018-03-07T03:52:51.894Z,1.87
2018-03-07T03:53:54.397Z,1.90
2018-03-07T03:54:56.940Z,1.90
2018-03-07T03:55:59.446Z,1.67
2018-03-07T03:57:01.967Z,1.83
2018-03-07T03:58:04.552Z,2.07
2018-03-07T03:59:07.065Z,2.20
2018-03-07T04:00:09.593Z,1.97
2018-03-07T04:01:12.112Z,1.60
2018-03-07T04:02:14.632Z,2.20
2018-03-07T04:03:17.181Z,1.47
2018-03-07T04:04:19.702Z,1.90
2018-03-07T04:05:22.234Z,1.87
2018-03-07T04:06:24.775Z,1.77
2018-03-07T04:07:27.278Z,1.67
2018-03-07T04:08:29.799Z,1.87
2018-03-07T04:09:32.327Z,1.80
2018-03-07T04:10:34.868Z,2.10
2018-03-07T04:11:37.396Z,2.60
2018-03-07T04:12:39.920Z,1.60
2018-03-07T04:13:42.440Z,1.77
2018-03-07T04:14:44.950Z,1.70
2018-03-07T04:15:47.470Z,1.77
2018-03-07T04:16:49.993Z,1.87
2018-03-07T04:17:52.512Z,1.90
2018-03-07T04:18:55.043Z,1.80
2018-03-07T04:19:57.571Z,2.07
2018-03-07T04:21:00.119Z,1.80
2018-03-07T04:22:02.644Z,1.70
2018-03-07T04:23:05.164Z,1.53
2018-03-07T04:24:07.670Z,1.80
2018-03-07T04:25:10.204Z,2.00
2018-03-07T04:26:12.715Z,1.70
2018-03-07T04:27:15.225Z,2.10
2018-03-07T04:28:17.752Z,1.50
2018-03-07T04:29:20.258Z,2.00
2018-03-07T04:30:22.765Z,1.67
2018-03-07T04:31:25.282Z,1.83
2018-03-07T04:32:27.786Z,2.47
2018-03-07T04:33:30.290Z,2.00
2018-03-07T04:34:32.796Z,2.10
2018-03-07T04:35:35.316Z,2.07
2018-03-07T04:36:37.874Z,2.47
2018-03-07T04:37:40.399Z,3.03
2018-03-07T04:38:42.901Z,2.00
2018-03-07T04:39:45.410Z,2.23
2018-03-07T04:40:47.913Z,1.90
2018-03-07T04:41:50.438Z,1.77
2018-03-07T04:42:53.027Z,1.97
2018-03-07T04:43:55.542Z,2.40
2018-03-07T04:44:58.068Z,2.20
2018-03-07T04:46:00.604Z,2.57
2018-03-07T04:47:03.110Z,2.17
2018-03-07T04:48:05.643Z,2.17
2018-03-07T04:49:08.162Z,2.20
2018-03-07T04:50:10.665Z,1.70
2018-03-07T04:51:13.204Z,1.77
2018-03-07T04:52:15.715Z,2.23
2018-03-07T04:53:18.238Z,2.20
2018-03-07T04:54:20.742Z,2.00
2018-03-07T04:55:23.249Z,1.53
2018-03-07T04:56:25.769Z,1.90
2018-03-07T04:57:28.293Z,2.03
2018-03-07T04:58:30.816Z,1.90
2018-03-07T04:59:33.355Z,2.10
2018-03-07T05:00:35.872Z,1.63
2018-03-07T05:01:38.421Z,2.17
2018-03-07T05:02:40.997Z,2.20
2018-03-07T05:03:43.497Z,2.33
2018-03-07T05:04:46.010Z,2.57
2018-03-07T05:05:48.536Z,2.00
2018-03-07T05:06:51.083Z,2.10
2018-03-07T05:07:53.599Z,3.13
2018-03-07T05:08:56.127Z,2.70
2018-03-07T05:09:58.648Z,2.20
2018-03-07T05:11:01.166Z,2.33
2018-03-07T05:12:03.716Z,2.07
2018-03-07T05:13:06.248Z,2.27
2018-03-07T05:14:08.772Z,1.93
2018-03-07T05:15:11.276Z,2.43
2018-03-07T05:16:13.827Z,2.27
2018-03-07T05:17:16.376Z,2.07
2018-03-07T05:18:18.906Z,2.33
2018-03-07T05:19:21.441Z,2.40
2018-03-07T05:20:23.964Z,1.80
2018-03-07T05:21:26.470Z,2.47
2018-03-07T05:22:29.005Z,2.50
2018-03-07T05:23:31.517Z,2.67
2018-03-07T05:24:34.101Z,2.03
2018-03-07T05:25:36.613Z,1.80
2018-03-07T05:26:39.137Z,1.87
2018-03-07T05:27:41.684Z,2.10
2018-03-07T05:28:44.209Z,1.97
2018-03-07T05:29:46.732Z,2.53
2018-03-07T05:30:49.419Z,2.57
2018-03-07T05:31:51.934Z,2.43
2018-03-07T05:32:54.481Z,2.37
2018-03-07T05:33:56.999Z,2.10
2018-03-07T05:34:59.513Z,2.27
2018-03-07T05:36:02.026Z,2.60
2018-03-07T05:37:04.538Z,2.10
2018-03-07T05:38:07.084Z,1.90
2018-03-07T05:39:09.594Z,2.60
2018-03-07T05:40:12.120Z,2.33
2018-03-07T05:41:14.632Z,2.10
2018-03-07T05:42:17.153Z,2.20
2018-03-07T05:43:19.776Z,2.00
2018-03-07T05:44:22.337Z,2.60
2018-03-07T05:45:24.868Z,2.40
2018-03-07T05:46:27.408Z,2.40
2018-03-07T05:47:29.918Z,2.37
2018-03-07T05:48:32.462Z,2.57
2018-03-07T05:49:34.984Z,1.97
2018-03-07T05:50:37.490Z,2.33
2018-03-07T05:51:40.010Z,2.43
2018-03-07T05:52:42.525Z,2.50
2018-03-07T05:53:45.057Z,2.00
2018-03-07T05:54:47.565Z,1.93
2018-03-07T05:55:50.112Z,2.70
2018-03-07T05:56:52.626Z,2.63
2018-03-07T05:57:55.146Z,2.70
2018-03-07T05:58:57.682Z,2.60
2018-03-07T06:00:00.204Z,2.20
2018-03-07T06:01:02.717Z,1.80
2018-03-07T06:02:05.243Z,2.27
2018-03-07T06:03:07.772Z,2.17
2018-03-07T06:04:10.439Z,2.63
2018-03-07T06:05:12.953Z,2.77
2018-03-07T06:06:15.496Z,2.10
2018-03-07T06:07:18.015Z,2.07
2018-03-07T06:08:20.597Z,2.10
2018-03-07T06:09:23.146Z,2.53
2018-03-07T06:10:25.668Z,2.73
2018-03-07T06:11:28.288Z,3.33
2018-03-07T06:12:30.882Z,3.37
2018-03-07T06:13:33.483Z,3.00
2018-03-07T06:14:36.022Z,2.57
2018-03-07T06:15:38.534Z,4.00
2018-03-07T06:16:41.042Z,3.00
2018-03-07T06:17:43.549Z,3.33
2018-03-07T06:18:46.204Z,3.10
2018-03-07T06:19:48.751Z,2.90
2018-03-07T06:20:51.271Z,3.30
2018-03-07T06:21:53.785Z,3.20
2018-03-07T06:22:56.447Z,3.33
2018-03-07T06:23:59.270Z,2.87
2018-03-07T06:25:02.316Z,2.60
2018-03-07T06:26:04.940Z,3.07
2018-03-07T06:27:07.691Z,2.83
2018-03-07T06:28:10.462Z,2.90
2018-03-07T06:29:13.520Z,3.10
2018-03-07T06:30:17.770Z,4.00
2018-03-07T06:31:21.048Z,3.90
2018-03-07T06:32:24.272Z,4.00
2018-03-07T06:33:27.468Z,3.63
2018-03-07T06:34:30.351Z,3.77
2018-03-07T06:35:33.041Z,4.90
2018-03-07T06:36:35.603Z,3.63
2018-03-07T06:37:38.252Z,3.90
2018-03-07T06:38:40.936Z,4.10
2018-03-07T06:39:43.510Z,4.03
2018-03-07T06:40:46.163Z,3.80
2018-03-07T06:41:48.708Z,3.53
2018-03-07T06:42:51.250Z,4.20
2018-03-07T06:43:54.604Z,4.00
2018-03-07T06:44:57.477Z,3.50
2018-03-07T06:46:00.036Z,4.33
2018-03-07T06:47:02.567Z,4.77
2018-03-07T06:48:05.082Z,3.80
2018-03-07T06:49:07.854Z,4.07
2018-03-07T06:50:10.386Z,3.77
2018-03-07T06:51:13.034Z,4.20
2018-03-07T06:52:15.572Z,4.00
2018-03-07T06:53:18.164Z,4.13
2018-03-07T06:54:20.674Z,3.83
2018-03-07T06:55:23.200Z,3.50
2018-03-07T06:56:25.714Z,4.57
2018-03-07T06:57:28.246Z,3.77
2018-03-07T06:58:30.800Z,3.70
2018-03-07T06:59:33.321Z,3.80
2018-03-07T07:00:35.848Z,4.73
2018-03-07T07:01:38.357Z,3.77
2018-03-07T07:02:40.875Z,3.67
2018-03-07T07:03:43.415Z,3.50
2018-03-07T07:04:45.938Z,3.80
2018-03-07T07:05:48.456Z,3.20
2018-03-07T07:06:50.980Z,3.73
2018-03-07T07:07:53.528Z,4.60
2018-03-07T07:08:56.152Z,3.87
2018-03-07T07:09:58.667Z,3.83
2018-03-07T07:11:01.174Z,3.60
2018-03-07T07:12:03.696Z,3.73
2018-03-07T07:13:06.230Z,4.27
2018-03-07T07:14:08.738Z,3.93
2018-03-07T07:15:11.246Z,4.07
2018-03-07T07:16:13.936Z,3.60
2018-03-07T07:17:17.334Z,4.60
2018-03-07T07:18:19.973Z,3.73
2018-03-07T07:19:22.776Z,4.17
2018-03-07T07:20:25.515Z,4.60
2018-03-07T07:21:28.038Z,3.77
2018-03-07T07:22:30.641Z,4.50
2018-03-07T07:23:33.386Z,3.23
2018-03-07T07:24:36.152Z,3.63
2018-03-07T07:25:38.897Z,3.67
2018-03-07T07:26:41.512Z,4.27
2018-03-07T07:27:44.196Z,4.17
2018-03-07T07:28:46.778Z,3.67
2018-03-07T07:29:49.970Z,3.73
2018-03-07T07:30:53.097Z,3.97
2018-03-07T07:31:55.695Z,4.07
2018-03-07T07:32:58.245Z,4.00
2018-03-07T07:34:01.294Z,3.70
2018-03-07T07:35:03.824Z,4.10
2018-03-07T07:36:06.678Z,4.23
2018-03-07T07:37:09.210Z,3.83
2018-03-07T07:38:11.828Z,3.60
2018-03-07T07:39:14.356Z,4.13
2018-03-07T07:40:16.862Z,4.00
2018-03-07T07:41:19.391Z,4.40
2018-03-07T07:42:21.950Z,4.33
2018-03-07T07:43:24.478Z,4.23
2018-03-07T07:44:26.999Z,3.70
2018-03-07T07:45:29.509Z,4.00
2018-03-07T07:46:32.030Z,4.10
2018-03-07T07:47:34.533Z,3.67
2018-03-07T07:48:37.329Z,4.03
2018-03-07T07:49:39.865Z,4.03
2018-03-07T07:50:42.440Z,4.20
2018-03-07T07:51:44.925Z,4.10
2018-03-07T07:52:47.438Z,3.63
2018-03-07T07:53:49.981Z,4.10
2018-03-07T07:54:52.486Z,4.13
2018-03-07T07:55:55.022Z,4.30
2018-03-07T07:56:57.548Z,3.60
2018-03-07T07:58:00.062Z,3.83
2018-03-07T07:59:02.610Z,3.77
2018-03-07T08:00:05.138Z,4.20
2018-03-07T08:01:07.670Z,3.80
2018-03-07T08:02:10.173Z,3.73
2018-03-07T08:03:12.697Z,3.90
2018-03-07T08:04:15.225Z,3.53
2018-03-07T08:05:17.738Z,3.10
2018-03-07T08:06:20.300Z,4.10
2018-03-07T08:07:22.820Z,3.60
2018-03-07T08:08:25.326Z,3.70
2018-03-07T08:09:27.864Z,3.80
2018-03-07T08:10:30.400Z,4.07
2018-03-07T08:11:32.953Z,7.67
2018-03-07T08:12:35.503Z,7.47
2018-03-07T08:13:38.057Z,8.03
2018-03-07T08:14:40.613Z,9.23
2018-03-07T08:15:43.150Z,9.17
2018-03-07T08:16:45.752Z,10.30
2018-03-07T08:17:48.267Z,10.47
2018-03-07T08:18:50.807Z,10.10
2018-03-07T08:19:53.364Z,10.93
2018-03-07T08:20:55.900Z,11.70
2018-03-07T08:21:58.422Z,10.90
2018-03-07T08:23:00.956Z,11.13
2018-03-07T08:24:03.488Z,11.70
2018-03-07T08:25:06.022Z,12.50
2018-03-07T08:26:08.567Z,12.63
2018-03-07T08:27:11.086Z,11.83
2018-03-07T08:28:13.623Z,12.00
2018-03-07T08:29:16.152Z,12.63
2018-03-07T08:30:18.710Z,11.83
2018-03-07T08:31:21.226Z,12.63
2018-03-07T08:32:23.764Z,12.57
2018-03-07T08:33:26.281Z,13.57
2018-03-07T08:34:28.795Z,13.10
2018-03-07T08:35:31.321Z,11.23
2018-03-07T08:36:33.842Z,12.40
2018-03-07T08:37:36.358Z,11.90
2018-03-07T08:38:39.847Z,12.00
2018-03-07T08:39:42.459Z,11.33
2018-03-07T08:40:45.143Z,12.03
2018-03-07T08:41:47.844Z,11.70
2018-03-07T08:42:50.448Z,11.30
2018-03-07T08:43:53.106Z,11.57
2018-03-07T08:44:55.782Z,11.90
2018-03-07T08:45:58.451Z,11.97
2018-03-07T08:47:01.128Z,12.50
2018-03-07T08:48:03.779Z,11.97
2018-03-07T08:49:06.427Z,12.27
2018-03-07T08:50:09.006Z,11.87
2018-03-07T08:51:11.613Z,12.40
2018-03-07T08:52:14.130Z,11.73
2018-03-07T08:53:16.659Z,11.70
2018-03-07T08:54:19.204Z,11.53
2018-03-07T08:55:21.730Z,11.60
2018-03-07T08:56:24.271Z,12.07
2018-03-07T08:57:26.811Z,10.77
2018-03-07T08:58:29.365Z,12.27
2018-03-07T08:59:31.907Z,10.90
2018-03-07T09:00:34.453Z,11.73
2018-03-07T09:01:36.998Z,12.35
2018-03-07T09:02:39.534Z,11.23
2018-03-07T09:03:42.081Z,10.88
2018-03-07T09:04:44.628Z,11.43
2018-03-07T09:05:47.148Z,11.60
2018-03-07T09:06:49.674Z,11.10
2018-03-07T09:07:52.207Z,11.20
2018-03-07T09:08:54.743Z,11.38
2018-03-07T09:09:57.274Z,11.30
2018-03-07T09:10:59.799Z,10.60
2018-03-07T09:12:02.340Z,11.40
2018-03-07T09:13:04.866Z,11.63
2018-03-07T09:14:07.389Z,11.53
2018-03-07T09:15:09.922Z,11.57
2018-03-07T09:16:12.469Z,11.00
2018-03-07T09:17:15.000Z,11.20
2018-03-07T09:18:17.530Z,10.15
2018-03-07T09:19:20.084Z,11.17
2018-03-07T09:20:22.633Z,11.75
2018-03-07T09:21:25.180Z,11.57
2018-03-07T09:22:27.721Z,11.32
2018-03-07T09:23:30.245Z,10.85
2018-03-07T09:24:32.802Z,11.23
2018-03-07T09:25:35.336Z,12.98
2018-03-07T09:26:37.864Z,10.80
2018-03-07T09:27:40.390Z,12.52
2018-03-07T09:28:42.925Z,10.50
2018-03-07T09:29:45.455Z,10.05
2018-03-07T09:30:48.005Z,10.38
2018-03-07T09:31:50.549Z,10.88
2018-03-07T09:32:53.091Z,10.15
2018-03-07T09:33:55.616Z,10.43
2018-03-07T09:34:58.166Z,10.03
2018-03-07T09:36:00.705Z,9.93
2018-03-07T09:37:03.216Z,9.57
2018-03-07T09:38:05.843Z,10.23
2018-03-07T09:39:08.365Z,10.03
2018-03-07T09:40:10.877Z,10.30
2018-03-07T09:41:13.444Z,9.32
2018-03-07T09:42:15.978Z,10.25
2018-03-07T09:43:18.516Z,9.05
2018-03-07T09:44:21.063Z,9.10
2018-03-07T09:45:23.600Z,8.40
2018-03-07T09:46:26.123Z,8.30
2018-03-07T09:47:28.706Z,8.93
2018-03-07T09:48:31.247Z,9.00
2018-03-07T09:49:33.782Z,8.27
2018-03-07T09:50:36.357Z,8.15
2018-03-07T09:51:38.886Z,7.70
2018-03-07T09:52:41.401Z,8.50
2018-03-07T09:53:43.942Z,7.70
2018-03-07T09:54:46.476Z,7.27
2018-03-07T09:55:49.177Z,7.80
2018-03-07T09:56:51.705Z,6.87
2018-03-07T09:57:54.227Z,6.78
2018-03-07T09:59:04.865Z,7.20
2018-03-07T10:00:07.390Z,7.13
2018-03-07T10:01:09.901Z,7.00
2018-03-07T10:02:12.418Z,7.63
2018-03-07T10:04:48.830Z,5.20
2018-03-07T10:09:26.218Z,4.70
2018-03-07T10:10:40.297Z,4.70
2018-03-07T10:11:43.545Z,6.23
2018-03-07T10:12:53.514Z,4.43
2018-03-07T10:16:35.846Z,4.15
2018-03-07T10:17:42.297Z,4.60
2018-03-07T10:20:26.949Z,5.53
2018-03-07T10:21:35.612Z,4.07
2018-03-07T10:25:30.251Z,4.03
2018-03-07T10:26:57.103Z,4.40
2018-03-07T10:27:59.789Z,4.63
2018-03-07T10:29:02.325Z,4.12
2018-03-07T10:30:04.889Z,4.20
2018-03-07T10:31:07.422Z,4.23
2018-03-07T10:32:10.127Z,4.45
2018-03-07T10:33:18.231Z,4.10
2018-03-07T10:34:20.779Z,4.57
2018-03-07T10:35:23.346Z,4.40
2018-03-07T10:36:25.871Z,3.87
2018-03-07T10:37:28.408Z,4.20
2018-03-07T10:38:30.949Z,4.78
2018-03-07T10:39:33.461Z,3.83
2018-03-07T10:40:36.008Z,3.63
2018-03-07T10:41:38.532Z,4.00
2018-03-07T10:42:41.043Z,4.20
2018-03-07T10:43:43.545Z,4.97
2018-03-07T10:44:46.058Z,4.17
2018-03-07T10:45:48.605Z,4.57
2018-03-07T10:46:51.122Z,4.17
2018-03-07T10:47:53.649Z,4.53
2018-03-07T10:48:56.162Z,4.20
2018-03-07T10:49:58.688Z,3.93
2018-03-07T10:51:01.236Z,4.33
2018-03-07T10:52:03.747Z,4.37
2018-03-07T10:53:06.274Z,4.50
2018-03-07T10:54:08.782Z,4.30
2018-03-07T10:55:11.286Z,4.27
2018-03-07T10:56:13.816Z,4.50
2018-03-07T10:57:16.346Z,4.30
2018-03-07T10:58:18.941Z,4.40
2018-03-07T10:59:21.511Z,5.00
2018-03-07T11:00:29.736Z,4.40
2018-03-07T11:01:32.270Z,4.90
2018-03-07T11:02:34.824Z,5.17
2018-03-07T11:03:37.402Z,5.30
2018-03-07T11:04:39.927Z,5.33
2018-03-07T11:05:42.444Z,5.53
2018-03-07T11:06:44.996Z,6.10
2018-03-07T11:07:47.521Z,5.50
2018-03-07T11:08:50.060Z,6.20
2018-03-07T11:09:52.586Z,7.03
2018-03-07T11:10:55.103Z,6.13
2018-03-07T11:11:57.656Z,6.17
2018-03-07T11:13:00.532Z,5.93
2018-03-07T11:14:03.069Z,5.40
2018-03-07T11:15:05.612Z,7.30
2018-03-07T11:16:08.146Z,6.30
2018-03-07T11:17:10.769Z,6.77
2018-03-07T11:18:13.448Z,6.80
2018-03-07T11:19:16.057Z,7.70
2018-03-07T11:20:18.701Z,7.50
2018-03-07T11:21:21.237Z,9.40
2018-03-07T11:22:24.523Z,9.27
2018-03-07T11:23:27.050Z,7.77
2018-03-07T11:24:29.605Z,9.50
2018-03-07T11:25:32.157Z,9.47
2018-03-07T11:26:34.742Z,10.53
2018-03-07T11:27:37.278Z,8.90
2018-03-07T11:28:39.790Z,8.47
2018-03-07T11:29:42.440Z,9.20
2018-03-07T11:30:44.994Z,9.47
2018-03-07T11:31:47.536Z,9.63
2018-03-07T11:32:50.077Z,8.40
2018-03-07T11:33:56.968Z,10.20
2018-03-07T11:34:59.891Z,9.17
2018-03-07T11:36:02.463Z,8.87
2018-03-07T11:37:04.967Z,7.70
2018-03-07T11:38:07.494Z,8.10
2018-03-07T11:39:10.028Z,6.90
2018-03-07T11:40:12.545Z,7.43
2018-03-07T11:41:15.067Z,6.47
2018-03-07T11:42:17.582Z,6.77
2018-03-07T11:43:20.136Z,5.87
2018-03-07T11:44:22.661Z,6.47
2018-03-07T11:45:25.194Z,6.37
2018-03-07T11:46:27.707Z,5.60
2018-03-07T11:47:30.222Z,6.07
2018-03-07T11:48:32.745Z,6.10
2018-03-07T11:49:35.267Z,5.30
2018-03-07T11:50:37.833Z,5.67
2018-03-07T11:51:40.370Z,5.90
2018-03-07T11:52:42.882Z,5.17
2018-03-07T11:53:45.520Z,5.57
2018-03-07T11:54:48.027Z,5.03
2018-03-07T11:55:50.538Z,6.00
2018-03-07T11:56:53.064Z,5.40
2018-03-07T11:57:55.573Z,5.20
2018-03-07T11:58:58.116Z,5.37
2018-03-07T12:00:00.629Z,5.27
2018-03-07T12:01:03.151Z,5.93
2018-03-07T12:02:05.669Z,4.60
2018-03-07T12:03:08.201Z,4.97
2018-03-07T12:04:10.725Z,4.23
2018-03-07T12:05:13.252Z,4.60
2018-03-07T12:06:15.793Z,4.70
2018-03-07T12:07:18.384Z,4.30
2018-03-07T12:08:20.919Z,4.60
2018-03-07T12:09:23.446Z,4.20
2018-03-07T12:10:25.982Z,5.43
2018-03-07T12:11:28.520Z,5.20
2018-03-07T12:12:31.042Z,5.50
2018-03-07T12:13:33.550Z,5.10
2018-03-07T12:14:36.085Z,4.60
2018-03-07T12:15:38.598Z,5.20
2018-03-07T12:16:41.115Z,4.73
2018-03-07T12:17:43.644Z,4.20
2018-03-07T12:18:46.542Z,5.20
2018-03-07T12:19:49.077Z,5.23
2018-03-07T12:20:51.600Z,4.83
2018-03-07T12:21:54.159Z,4.97
2018-03-07T12:22:56.673Z,4.50
2018-03-07T12:23:59.193Z,4.40
2018-03-07T12:25:01.726Z,4.33
2018-03-07T12:26:04.235Z,4.47
2018-03-07T12:27:06.746Z,4.00
2018-03-07T12:28:09.277Z,4.13
2018-03-07T12:29:11.804Z,4.40
2018-03-07T12:30:14.349Z,4.13
2018-03-07T12:31:16.876Z,4.33
2018-03-07T12:32:19.404Z,3.90
2018-03-07T12:33:21.929Z,4.47
2018-03-07T12:34:24.461Z,4.77
2018-03-07T12:35:26.994Z,3.67
2018-03-07T12:36:29.515Z,4.53
2018-03-07T12:37:32.031Z,5.00
2018-03-07T12:38:36.264Z,4.20
2018-03-07T12:39:38.872Z,4.00
2018-03-07T12:40:41.408Z,3.90
2018-03-07T12:41:44.037Z,3.20
2018-03-07T12:42:46.532Z,3.60
2018-03-07T12:43:49.064Z,3.87
2018-03-07T12:44:51.637Z,3.70
2018-03-07T12:45:54.194Z,4.30
2018-03-07T12:46:56.721Z,3.83
2018-03-07T12:47:59.243Z,3.37
2018-03-07T12:49:01.785Z,3.70
2018-03-07T12:50:04.316Z,3.37
2018-03-07T12:51:06.877Z,4.20
2018-03-07T12:52:09.421Z,3.80
2018-03-07T12:53:11.938Z,3.80
2018-03-07T12:54:14.446Z,2.97
2018-03-07T12:55:16.980Z,3.43
2018-03-07T12:56:19.540Z,3.70
2018-03-07T12:57:22.072Z,3.53
2018-03-07T12:58:24.597Z,4.03
2018-03-07T12:59:27.128Z,3.10
2018-03-07T13:00:29.630Z,3.00
2018-03-07T13:01:32.162Z,3.40
2018-03-07T13:02:34.687Z,3.50
2018-03-07T13:03:37.198Z,3.70
2018-03-07T13:04:39.728Z,3.60
2018-03-07T13:05:42.243Z,3.53
2018-03-07T13:06:44.795Z,3.30
2018-03-07T13:07:47.328Z,3.67
2018-03-07T13:08:49.880Z,3.77
2018-03-07T13:09:52.390Z,3.40
2018-03-07T13:10:54.917Z,3.40
2018-03-07T13:11:57.465Z,2.90
2018-03-07T13:13:00.098Z,3.80
2018-03-07T13:14:02.617Z,3.30
2018-03-07T13:15:05.141Z,3.27
2018-03-07T13:16:07.653Z,3.73
2018-03-07T13:17:10.178Z,3.40
2018-03-07T13:18:12.688Z,2.93
2018-03-07T13:19:15.198Z,3.60
2018-03-07T13:20:17.736Z,3.10
2018-03-07T13:21:20.263Z,3.30
2018-03-07T13:22:22.798Z,3.40
2018-03-07T13:23:25.328Z,3.13
2018-03-07T13:24:27.848Z,3.27
2018-03-07T13:25:30.370Z,3.60
2018-03-07T13:26:32.941Z,3.60
2018-03-07T13:27:35.526Z,3.20
2018-03-07T13:28:38.502Z,3.33
2018-03-07T13:29:41.013Z,3.50
2018-03-07T13:30:43.545Z,3.40
2018-03-07T13:31:46.072Z,4.00
2018-03-07T13:32:48.626Z,3.60
2018-03-07T13:33:51.139Z,3.37
2018-03-07T13:34:53.676Z,3.10
2018-03-07T13:35:56.192Z,3.50
2018-03-07T13:36:58.717Z,3.23
2018-03-07T13:38:01.256Z,2.93
2018-03-07T13:39:03.776Z,3.40
2018-03-07T13:40:06.315Z,3.47
2018-03-07T13:41:08.840Z,3.00
2018-03-07T13:42:11.354Z,3.23
2018-03-07T13:43:13.904Z,3.07
2018-03-07T13:44:16.429Z,2.90
2018-03-07T13:45:18.958Z,2.90
2018-03-07T13:46:21.484Z,3.37
2018-03-07T13:47:24.008Z,2.70
2018-03-07T13:48:26.556Z,3.47
2018-03-07T13:49:29.169Z,3.10
2018-03-07T13:50:31.697Z,3.20
2018-03-07T13:51:34.217Z,3.40
2018-03-07T13:52:36.752Z,3.10
2018-03-07T13:53:39.300Z,3.10
2018-03-07T13:54:41.810Z,3.03
2018-03-07T13:55:44.316Z,2.80
2018-03-07T13:56:46.822Z,3.17
2018-03-07T13:57:49.336Z,3.07
2018-03-07T13:58:51.865Z,3.03
2018-03-07T13:59:54.387Z,3.37
2018-03-07T14:00:56.908Z,3.30
2018-03-07T14:01:59.430Z,3.50
2018-03-07T14:03:01.952Z,3.37